createdAt,value
2018-09-25T01:35:57.508Z,96.15
2018-09-25T02:05:13.719Z,95.57
2018-09-25T03:14:35.562Z,95.67
2018-09-25T03:15:35.556Z,96.29
2018-09-25T04:00:31.967Z,95.40
2018-09-25T04:01:31.940Z,95.81
2018-09-25T04:02:31.922Z,95.61
2018-09-25T04:03:31.913Z,96.02
2018-09-25T04:04:32.327Z,95.81
2018-09-25T04:05:32.237Z,96.08
2018-09-25T04:06:32.263Z,96.08
2018-09-25T04:07:31.860Z,95.87
2018-09-25T04:08:32.518Z,95.98
2018-09-25T04:09:31.841Z,95.98
2018-09-25T04:10:31.826Z,95.98
2018-09-25T04:11:31.829Z,95.87
2018-09-25T04:12:31.807Z,95.67
2018-09-25T04:13:31.796Z,96.29
2018-09-25T04:14:31.781Z,96.33
2018-09-25T04:15:31.771Z,96.08
2018-09-25T04:16:31.774Z,96.29
2018-09-25T04:17:31.747Z,95.56
2018-09-25T04:18:31.870Z,95.36
2018-09-25T04:19:31.768Z,96.08
2018-09-25T04:20:31.717Z,95.98
2018-09-25T04:21:31.713Z,95.77
2018-09-25T04:22:31.697Z,95.56
2018-09-25T04:23:31.684Z,95.25
2018-09-25T04:24:31.995Z,95.46
2018-09-25T04:25:31.659Z,95.46
2018-09-25T04:26:32.049Z,95.61
2018-09-25T04:27:31.637Z,95.81
2018-09-25T04:28:31.990Z,95.71
2018-09-25T04:29:31.618Z,95.40
2018-09-25T04:30:31.603Z,95.29
2018-09-25T04:31:31.604Z,95.98
2018-09-25T04:32:31.814Z,95.98
2018-09-25T04:33:31.569Z,96.08
2018-09-25T04:34:31.557Z,95.87
2018-09-25T04:35:31.546Z,95.98
2018-09-25T04:36:31.543Z,95.87
2018-09-25T04:37:31.625Z,96.19
2018-09-25T04:38:31.513Z,95.98
2018-09-25T04:39:31.660Z,95.98
2018-09-25T04:40:32.275Z,95.25
2018-09-25T04:41:31.490Z,95.46
2018-09-25T04:42:31.472Z,95.56
2018-09-25T04:43:31.456Z,95.56
2018-09-25T04:44:31.916Z,95.67
2018-09-25T04:45:31.433Z,95.67
2018-09-25T04:46:31.433Z,95.36
2018-09-25T04:47:31.410Z,95.56
2018-09-25T04:48:31.394Z,95.67
2018-09-25T04:49:31.388Z,95.67
2018-09-25T04:50:31.376Z,95.87
2018-09-25T04:51:31.377Z,95.87
2018-09-25T04:52:31.348Z,95.98
2018-09-25T04:53:31.413Z,95.87
2018-09-25T04:54:31.335Z,95.36
2018-09-25T04:55:31.318Z,95.81
2018-09-25T04:56:31.315Z,95.61
2018-09-25T04:57:31.297Z,96.12
2018-09-25T04:58:31.315Z,95.92
2018-09-25T04:59:31.448Z,96.33
2018-09-25T05:00:31.566Z,96.12
2018-09-25T05:01:31.334Z,97.27
2018-09-25T05:02:31.240Z,96.70
2018-09-25T05:03:31.223Z,97.06
2018-09-25T05:04:31.216Z,97.43
2018-09-25T05:05:31.491Z,97.22
2018-09-25T05:06:31.224Z,97.16
2018-09-25T05:07:31.178Z,97.22
2018-09-25T05:08:31.169Z,97.22
2018-09-25T05:09:31.155Z,97.33
2018-09-25T05:10:31.148Z,96.95
2018-09-25T05:11:31.146Z,96.91
2018-09-25T05:12:31.207Z,96.81
2018-09-25T05:13:31.153Z,96.64
2018-09-25T05:14:31.103Z,97.37
2018-09-25T05:15:31.092Z,97.02
2018-09-25T05:16:31.292Z,96.33
2018-09-25T05:17:31.069Z,96.64
2018-09-25T05:18:31.261Z,97.33
2018-09-25T05:19:31.049Z,96.91
2018-09-25T05:20:31.044Z,96.91
2018-09-25T05:21:31.170Z,96.95
2018-09-25T05:22:31.007Z,96.85
2018-09-25T05:23:31.042Z,96.91
2018-09-25T05:24:30.989Z,96.85
2018-09-25T05:25:30.977Z,96.85
2018-09-25T05:26:30.980Z,96.19
2018-09-25T05:27:30.958Z,96.19
2018-09-25T05:28:30.939Z,96.23
2018-09-25T05:29:30.932Z,96.29
2018-09-25T05:30:30.920Z,96.33
2018-09-25T05:31:31.159Z,96.08
2018-09-25T05:32:30.897Z,96.29
2018-09-25T05:33:30.891Z,96.33
2018-09-25T05:34:30.996Z,96.12
2018-09-25T05:35:31.123Z,96.39
2018-09-25T05:36:31.053Z,96.02
2018-09-25T05:37:31.290Z,95.50
2018-09-25T05:38:30.835Z,95.61
2018-09-25T05:39:30.821Z,96.12
2018-09-25T05:40:30.963Z,95.56
2018-09-25T05:41:30.847Z,96.23
2018-09-25T05:42:31.200Z,96.12
2018-09-25T05:43:30.772Z,96.50
2018-09-25T05:44:30.766Z,96.29
2018-09-25T05:45:30.762Z,95.77
2018-09-25T05:46:30.743Z,95.87
2018-09-25T05:47:31.237Z,95.98
2018-09-25T05:48:31.149Z,96.29
2018-09-25T05:49:30.708Z,95.87
2018-09-25T05:50:30.864Z,95.98
2018-09-25T05:51:30.681Z,96.19
2018-09-25T05:52:30.683Z,95.87
2018-09-25T05:53:30.664Z,95.46
2018-09-25T05:54:30.652Z,95.67
2018-09-25T05:55:30.833Z,95.46
2018-09-25T05:56:30.684Z,95.46
2018-09-25T05:57:30.626Z,95.46
2018-09-25T05:58:30.606Z,95.71
2018-09-25T05:59:30.591Z,95.50
2018-09-25T06:00:30.583Z,95.50
2018-09-25T06:01:30.845Z,96.02
2018-09-25T06:02:30.575Z,96.02
2018-09-25T06:03:30.549Z,96.08
2018-09-25T06:04:30.684Z,96.29
2018-09-25T06:05:30.529Z,95.98
2018-09-25T06:06:30.515Z,95.67
2018-09-25T06:07:30.524Z,95.77
2018-09-25T06:08:30.492Z,94.53
2018-09-25T06:09:30.532Z,94.42
2018-09-25T06:10:30.470Z,94.57
2018-09-25T06:11:30.464Z,94.94
2018-09-25T06:12:30.456Z,95.92
2018-09-25T06:13:30.436Z,95.67
2018-09-25T06:14:30.425Z,95.46
2018-09-25T06:15:30.413Z,95.56
2018-09-25T06:16:30.399Z,95.56
2018-09-25T06:17:30.404Z,95.56
2018-09-25T06:18:30.380Z,95.46
2018-09-25T06:19:30.368Z,95.31
2018-09-25T06:20:30.356Z,95.56
2018-09-25T06:21:30.345Z,95.56
2018-09-25T06:22:30.345Z,94.53
2018-09-25T06:23:30.327Z,94.68
2018-09-25T06:24:30.311Z,94.84
2018-09-25T06:25:30.300Z,94.42
2018-09-25T06:26:30.285Z,95.04
2018-09-25T06:27:30.284Z,95.46
2018-09-25T06:28:30.266Z,95.67
2018-09-25T06:29:30.255Z,94.73
2018-09-25T06:30:30.244Z,94.73
2018-09-25T06:31:30.232Z,95.36
2018-09-25T06:32:30.232Z,95.56
2018-09-25T06:33:30.210Z,95.36
2018-09-25T06:34:30.249Z,95.51
2018-09-25T06:35:30.187Z,95.67
2018-09-25T06:36:30.163Z,95.25
2018-09-25T06:37:30.176Z,95.31
2018-09-25T06:38:30.163Z,95.46
2018-09-25T06:39:30.143Z,95.77
2018-09-25T06:40:30.160Z,94.84
2018-09-25T06:41:30.114Z,94.84
2018-09-25T06:42:30.119Z,94.21
2018-09-25T06:43:30.096Z,94.37
2018-09-25T06:44:30.083Z,94.27
2018-09-25T06:45:30.073Z,94.37
2018-09-25T06:46:30.061Z,93.75
2018-09-25T06:47:30.438Z,93.33
2018-09-25T06:48:30.834Z,94.06
2018-09-25T06:49:30.028Z,93.44
2018-09-25T06:50:30.017Z,93.65
2018-09-25T06:51:30.216Z,93.23
2018-09-25T06:52:30.335Z,94.12
2018-09-25T06:53:29.981Z,94.54
2018-09-25T06:54:29.970Z,94.49
2018-09-25T06:55:29.959Z,94.49
2018-09-25T06:56:29.948Z,93.66
2018-09-25T06:57:29.940Z,92.32
2018-09-25T06:58:29.999Z,92.07
2018-09-25T06:59:29.912Z,91.97
2018-09-25T07:00:30.183Z,92.18
2018-09-25T07:01:29.890Z,92.28
2018-09-25T07:02:29.891Z,92.28
2018-09-25T07:03:29.873Z,92.34
2018-09-25T07:04:29.852Z,91.82
2018-09-25T07:05:30.066Z,91.30
2018-09-25T07:06:29.847Z,91.93
2018-09-25T07:07:29.833Z,92.24
2018-09-25T07:08:30.041Z,91.67
2018-09-25T07:09:29.799Z,92.09
2018-09-25T07:10:29.882Z,90.74
2018-09-25T07:11:29.773Z,90.23
2018-09-25T07:12:29.776Z,90.95
2018-09-25T07:13:29.758Z,90.23
2018-09-25T07:14:29.964Z,90.19
2018-09-25T07:15:29.734Z,90.87
2018-09-25T07:16:29.724Z,90.14
2018-09-25T07:17:30.300Z,89.32
2018-09-25T07:18:29.701Z,89.69
2018-09-25T07:19:29.705Z,89.13
2018-09-25T07:20:29.674Z,88.82
2018-09-25T07:21:29.663Z,89.19
2018-09-25T07:22:29.664Z,89.56
2018-09-25T07:23:29.640Z,89.05
2018-09-25T07:24:29.648Z,87.98
2018-09-25T07:25:29.618Z,88.35
2018-09-25T07:26:29.602Z,86.08
2018-09-25T07:27:29.610Z,87.07
2018-09-25T07:28:29.572Z,83.84
2018-09-25T07:29:29.572Z,83.63
2018-09-25T07:30:29.565Z,81.88
2018-09-25T07:31:30.755Z,81.16
2018-09-25T07:32:29.550Z,80.71
2018-09-25T07:33:30.364Z,80.85
2018-09-25T07:34:29.561Z,80.95
2018-09-25T07:35:29.503Z,81.77
2018-09-25T07:36:29.493Z,80.91
2018-09-25T07:37:29.548Z,80.57
2018-09-25T07:38:29.472Z,80.77
2018-09-25T07:39:29.460Z,80.84
2018-09-25T07:40:29.447Z,80.94
2018-09-25T07:41:29.434Z,82.34
2018-09-25T07:42:29.428Z,81.32
2018-09-25T07:43:29.425Z,80.29
2018-09-25T07:44:29.397Z,80.46
2018-09-25T07:45:29.392Z,80.73
2018-09-25T07:46:29.384Z,81.82
2018-09-25T07:47:29.368Z,79.97
2018-09-25T07:48:29.368Z,79.56
2018-09-25T07:49:29.345Z,77.98
2018-09-25T07:50:29.338Z,76.82
2018-09-25T07:51:29.322Z,76.72
2018-09-25T07:52:29.313Z,78.16
2018-09-25T07:53:29.312Z,78.63
2018-09-25T07:54:29.288Z,77.57
2018-09-25T07:55:29.281Z,77.06
2018-09-25T07:56:29.262Z,75.21
2018-09-25T07:57:29.252Z,76.58
2018-09-25T07:58:29.259Z,76.65
2018-09-25T07:59:29.232Z,76.65
2018-09-25T08:00:29.227Z,75.89
2018-09-25T08:01:29.213Z,76.78
2018-09-25T08:02:29.198Z,75.96
2018-09-25T08:03:29.233Z,76.68
2018-09-25T08:04:29.177Z,76.47
2018-09-25T08:05:29.171Z,76.61
2018-09-25T08:06:29.157Z,77.43
2018-09-25T08:07:29.143Z,76.78
2018-09-25T08:08:29.142Z,77.09
2018-09-25T08:09:29.124Z,77.29
2018-09-25T08:10:29.112Z,77.91
2018-09-25T08:11:29.097Z,77.80
2018-09-25T08:12:29.069Z,78.52
2018-09-25T08:13:29.082Z,78.49
2018-09-25T08:14:29.075Z,76.54
2018-09-25T08:15:29.083Z,77.08
2018-09-25T08:16:29.041Z,75.07
2018-09-25T08:17:29.020Z,74.97
2018-09-25T08:18:29.026Z,74.63
2018-09-25T08:19:28.996Z,75.51
2018-09-25T08:20:28.991Z,75.10
2018-09-25T08:21:28.981Z,74.52
2018-09-25T08:22:28.968Z,75.92
2018-09-25T08:23:28.969Z,75.00
2018-09-25T08:24:31.436Z,73.84
2018-09-25T08:25:28.937Z,72.89
2018-09-25T08:26:28.947Z,70.72
2018-09-25T08:27:28.900Z,71.80
2018-09-25T08:28:28.916Z,71.84
2018-09-25T08:29:28.892Z,67.74
2018-09-25T08:30:28.883Z,66.52
2018-09-25T08:31:28.871Z,67.91
2018-09-25T08:32:28.874Z,69.23
2018-09-25T08:33:28.873Z,67.80
2018-09-25T08:34:28.837Z,67.50
2018-09-25T08:35:28.827Z,66.99
2018-09-25T08:36:28.814Z,68.21
2018-09-25T08:37:28.803Z,67.43
2018-09-25T08:38:28.860Z,63.97
2018-09-25T08:39:29.024Z,67.94
2018-09-25T08:40:28.765Z,66.99
2018-09-25T08:41:28.759Z,66.69
2018-09-25T08:42:28.807Z,66.49
2018-09-25T08:43:28.743Z,65.97
2018-09-25T08:44:28.724Z,66.55
2018-09-25T08:45:29.423Z,62.26
2018-09-25T08:46:28.697Z,62.23
2018-09-25T08:47:28.690Z,61.08
2018-09-25T08:48:28.691Z,59.74
2018-09-25T08:49:28.668Z,61.66
2018-09-25T08:50:28.700Z,62.30
2018-09-25T08:51:28.634Z,62.84
2018-09-25T08:52:28.672Z,62.97
2018-09-25T08:53:28.674Z,66.08
2018-09-25T08:54:28.618Z,65.77
2018-09-25T08:55:28.604Z,66.65
2018-09-25T08:56:28.584Z,66.55
2018-09-25T08:57:28.581Z,67.53
2018-09-25T08:58:28.583Z,65.70
2018-09-25T08:59:28.564Z,62.75
2018-09-25T09:00:28.566Z,59.37
2018-09-25T09:01:28.536Z,60.05
2018-09-25T09:02:28.524Z,60.38
2018-09-25T09:03:28.513Z,65.54
2018-09-25T09:04:28.502Z,61.85
2018-09-25T09:05:28.490Z,62.70
2018-09-25T09:06:28.480Z,61.55
2018-09-25T09:07:28.469Z,61.37
2018-09-25T09:08:28.600Z,60.59
2018-09-25T09:09:28.445Z,62.32
2018-09-25T09:10:28.437Z,65.49
2018-09-25T09:11:28.477Z,65.19
2018-09-25T09:12:29.030Z,66.13
2018-09-25T09:13:29.888Z,66.27
2018-09-25T09:14:28.385Z,63.47
2018-09-25T09:15:28.424Z,64.28
2018-09-25T09:16:29.086Z,65.23
2018-09-25T09:17:28.980Z,65.67
2018-09-25T09:18:28.357Z,69.01
2018-09-25T09:19:28.443Z,69.04
2018-09-25T09:20:28.318Z,69.24
2018-09-25T09:21:28.317Z,69.35
2018-09-25T09:22:28.304Z,70.68
2018-09-25T09:23:28.300Z,71.77
2018-09-25T09:24:28.281Z,72.38
2018-09-25T09:25:28.268Z,70.23
2018-09-25T09:26:28.266Z,70.54
2018-09-25T09:27:30.519Z,71.59
2018-09-25T09:28:28.533Z,72.72
2018-09-25T09:29:28.489Z,72.52
2018-09-25T09:30:28.218Z,70.57
2018-09-25T09:31:28.201Z,70.40
2018-09-25T09:32:28.229Z,72.41
2018-09-25T09:33:28.192Z,70.61
2018-09-25T09:34:28.167Z,71.53
2018-09-25T09:35:28.567Z,60.97
2018-09-25T09:36:28.141Z,63.22
2018-09-25T09:37:29.483Z,62.71
2018-09-25T09:38:28.134Z,67.10
2018-09-25T09:39:28.112Z,66.86
2018-09-25T09:40:28.100Z,66.56
2018-09-25T09:41:28.118Z,63.26
2018-09-25T09:42:28.077Z,58.98
2018-09-25T09:43:28.102Z,58.67
2018-09-25T09:44:28.060Z,56.12
2018-09-25T09:45:28.048Z,56.32
2018-09-25T09:46:28.036Z,57.65
2018-09-25T09:47:28.025Z,53.67
2018-09-25T09:48:29.492Z,56.32
2018-09-25T09:49:28.022Z,58.87
2018-09-25T09:50:28.068Z,54.79
2018-09-25T09:51:27.988Z,53.49
2018-09-25T09:52:27.968Z,55.13
2018-09-25T09:53:28.282Z,54.51
2018-09-25T09:54:28.008Z,53.80
2018-09-25T09:55:28.484Z,54.95
2018-09-25T09:56:28.000Z,56.25
2018-09-25T09:57:27.913Z,59.52
2018-09-25T09:58:27.901Z,57.27
2018-09-25T09:59:27.894Z,57.27
2018-09-25T10:00:27.878Z,55.63
2018-09-25T10:01:27.868Z,56.04
2018-09-25T10:02:27.851Z,55.13
2018-09-25T10:03:28.492Z,56.23
2018-09-25T10:04:27.932Z,56.43
2018-09-25T10:05:28.256Z,55.51
2018-09-25T10:06:28.317Z,54.97
2018-09-25T10:07:28.436Z,56.10
2018-09-25T10:08:27.780Z,56.81
2018-09-25T10:09:28.805Z,58.34
2018-09-25T10:10:27.760Z,58.95
2018-09-25T10:11:28.519Z,58.95
2018-09-25T10:12:27.747Z,59.18
2018-09-25T10:13:27.727Z,58.16
2018-09-25T10:14:28.199Z,57.81
2018-09-25T10:15:27.704Z,58.62
2018-09-25T10:16:28.490Z,58.01
2018-09-25T10:17:28.200Z,58.65
2018-09-25T10:18:27.670Z,57.35
2018-09-25T10:19:27.671Z,59.39
2018-09-25T10:20:27.640Z,62.66
2018-09-25T10:21:28.497Z,58.78
2018-09-25T10:22:27.619Z,56.35
2018-09-25T10:23:27.610Z,58.40
2018-09-25T10:24:27.608Z,58.09
2018-09-25T10:25:27.587Z,60.21
2018-09-25T10:26:27.580Z,57.45
2018-09-25T10:27:27.636Z,55.99
2018-09-25T10:28:27.556Z,54.77
2018-09-25T10:29:28.836Z,55.89
2018-09-25T10:30:27.531Z,54.77
2018-09-25T10:31:27.520Z,53.62
2018-09-25T10:32:27.505Z,53.62
2018-09-25T10:33:27.493Z,53.83
2018-09-25T10:34:27.495Z,53.42
2018-09-25T10:35:27.470Z,54.92
2018-09-25T10:36:27.546Z,54.72
2018-09-25T10:37:27.452Z,52.25
2018-09-25T10:38:28.028Z,52.14
2018-09-25T10:39:27.432Z,52.04
2018-09-25T10:40:27.812Z,52.14
2018-09-25T10:41:27.401Z,52.67
2018-09-25T10:42:27.590Z,54.59
2018-09-25T10:43:27.385Z,58.47
2018-09-25T10:44:27.377Z,58.16
2018-09-25T10:45:27.349Z,56.35
2018-09-25T10:46:27.341Z,55.23
2018-09-25T10:47:27.330Z,55.84
2018-09-25T10:48:27.316Z,55.84
2018-09-25T10:49:27.321Z,54.51
2018-09-25T10:50:27.294Z,56.15
2018-09-25T10:51:28.637Z,57.27
2018-09-25T10:52:27.273Z,53.47
2018-09-25T10:53:27.265Z,54.49
2018-09-25T10:54:27.260Z,53.27
2018-09-25T10:55:27.322Z,56.60
2018-09-25T10:56:28.009Z,55.48
2018-09-25T10:57:27.218Z,56.10
2018-09-25T10:58:27.209Z,55.46
2018-09-25T10:59:27.204Z,52.83
2018-09-25T11:00:27.177Z,52.53
2018-09-25T11:01:27.168Z,53.34
2018-09-25T11:02:27.158Z,56.10
2018-09-25T11:03:27.147Z,55.66
2018-09-25T11:04:27.810Z,54.44
2018-09-25T11:05:27.538Z,53.11
2018-09-25T11:06:27.114Z,53.52
2018-09-25T11:07:27.251Z,53.44
2018-09-25T11:08:27.288Z,53.34
2018-09-25T11:09:27.107Z,54.49
2018-09-25T11:10:27.068Z,53.57
2018-09-25T11:11:27.257Z,53.67
2018-09-25T11:12:27.041Z,53.67
2018-09-25T11:13:27.027Z,54.82
2018-09-25T11:14:27.031Z,54.82
2018-09-25T11:15:27.008Z,56.66
2018-09-25T11:16:26.996Z,59.41
2018-09-25T11:17:26.981Z,61.05
2018-09-25T11:18:26.974Z,63.67
2018-09-25T11:19:26.989Z,59.08
2018-09-25T11:20:26.952Z,53.47
2018-09-25T11:21:26.944Z,53.03
2018-09-25T11:22:26.928Z,58.23
2018-09-25T11:23:26.916Z,55.48
2018-09-25T11:24:26.922Z,53.55
2018-09-25T11:25:26.937Z,54.03
2018-09-25T11:26:26.892Z,50.56
2018-09-25T11:27:26.865Z,50.99
2018-09-25T11:28:26.858Z,52.12
2018-09-25T11:29:26.854Z,51.84
2018-09-25T11:30:26.932Z,53.34
2018-09-25T11:31:26.847Z,51.32
2018-09-25T11:32:26.866Z,54.87
2018-09-25T11:33:26.802Z,56.30
2018-09-25T11:34:26.798Z,55.66
2018-09-25T11:35:26.889Z,53.01
2018-09-25T11:36:27.234Z,54.13
2018-09-25T11:37:26.750Z,51.79
2018-09-25T11:38:26.740Z,49.65
2018-09-25T11:39:26.754Z,50.97
2018-09-25T11:40:26.718Z,52.09
2018-09-25T11:41:26.793Z,51.17
2018-09-25T11:42:26.688Z,49.44
2018-09-25T11:43:26.684Z,51.71
2018-09-25T11:44:26.724Z,53.64
2018-09-25T11:45:26.678Z,51.79
2018-09-25T11:46:26.650Z,55.76
2018-09-25T11:47:26.634Z,53.62
2018-09-25T11:48:26.624Z,52.81
2018-09-25T11:49:26.612Z,57.50
2018-09-25T11:50:26.621Z,55.56
2018-09-25T11:51:27.391Z,53.92
2018-09-25T11:52:26.773Z,51.38
2018-09-25T11:53:26.563Z,57.60
2018-09-25T11:54:26.556Z,52.70
2018-09-25T11:55:26.556Z,52.27
2018-09-25T11:56:26.720Z,49.34
2018-09-25T11:57:26.518Z,50.03
2018-09-25T11:58:26.559Z,52.98
2018-09-25T11:59:26.560Z,52.35
2018-09-25T12:00:26.500Z,51.10
2018-09-25T12:01:26.481Z,49.17
2018-09-25T12:02:26.859Z,50.87
2018-09-25T12:03:26.454Z,48.64
2018-09-25T12:04:26.492Z,48.72
2018-09-25T12:05:26.441Z,49.53
2018-09-25T12:06:26.416Z,50.04
2018-09-25T12:07:26.597Z,48.82
2018-09-25T12:08:26.874Z,50.34
2018-09-25T12:09:26.379Z,53.39
2018-09-25T12:10:26.632Z,49.12
2018-09-25T12:11:26.361Z,49.65
2018-09-25T12:12:26.348Z,48.66
2018-09-25T12:13:26.346Z,49.78
2018-09-25T12:14:26.322Z,49.29
2018-09-25T12:15:27.665Z,51.33
2018-09-25T12:16:26.304Z,48.38
2018-09-25T12:17:26.315Z,48.79
2018-09-25T12:18:26.839Z,49.83
2018-09-25T12:19:26.269Z,51.13
2018-09-25T12:20:26.266Z,49.90
2018-09-25T12:21:26.242Z,49.09
2018-09-25T12:22:26.236Z,51.84
2018-09-25T12:23:27.850Z,51.84
2018-09-25T12:24:26.646Z,52.96
2018-09-25T12:25:26.214Z,51.53
2018-09-25T12:26:26.175Z,52.15
2018-09-25T12:27:26.187Z,52.02
2018-09-25T12:28:26.165Z,50.31
2018-09-25T12:29:26.320Z,52.43
2018-09-25T12:30:26.154Z,52.33
2018-09-25T12:31:26.130Z,53.24
2018-09-25T12:32:26.147Z,53.85
2018-09-25T12:33:26.109Z,51.92
2018-09-25T12:34:26.099Z,52.83
2018-09-25T12:35:26.094Z,52.15
2018-09-25T12:36:26.070Z,53.78
2018-09-25T12:37:26.058Z,53.37
2018-09-25T12:38:26.057Z,54.49
2018-09-25T12:39:26.041Z,53.90
2018-09-25T12:40:26.041Z,54.31
2018-09-25T12:41:26.014Z,55.53
2018-09-25T12:42:26.026Z,55.56
2018-09-25T12:43:25.980Z,57.67
2018-09-25T12:44:26.588Z,56.45
2018-09-25T12:45:25.984Z,56.58
2018-09-25T12:46:25.995Z,56.65
2018-09-25T12:47:26.024Z,55.84
2018-09-25T12:48:26.338Z,58.80
2018-09-25T12:49:26.613Z,55.51
2018-09-25T12:50:25.988Z,56.32
2018-09-25T12:51:25.910Z,54.18
2018-09-25T12:52:26.159Z,55.51
2018-09-25T12:53:25.879Z,53.37
2018-09-25T12:54:26.906Z,53.78
2018-09-25T12:55:25.859Z,55.20
2018-09-25T12:56:25.847Z,55.58
2018-09-25T12:57:26.085Z,54.66
2018-09-25T12:58:25.821Z,53.75
2018-09-25T12:59:25.811Z,53.16
2018-09-25T13:00:25.814Z,53.27
2018-09-25T13:01:25.784Z,53.37
2018-09-25T13:02:25.779Z,53.27
2018-09-25T13:03:26.418Z,54.59
2018-09-25T13:04:25.873Z,55.71
2018-09-25T13:05:25.754Z,54.90
2018-09-25T13:06:26.057Z,53.47
2018-09-25T13:07:25.720Z,53.88
2018-09-25T13:08:25.709Z,55.71
2018-09-25T13:09:25.696Z,53.88
2018-09-25T13:10:25.697Z,53.47
2018-09-25T13:11:27.455Z,53.27
2018-09-25T13:12:26.089Z,53.47
2018-09-25T13:13:26.281Z,54.69
2018-09-25T13:14:25.636Z,53.90
2018-09-25T13:15:25.632Z,53.90
2018-09-25T13:16:26.442Z,53.92
2018-09-25T13:17:25.911Z,54.85
2018-09-25T13:18:25.597Z,54.33
2018-09-25T13:19:25.585Z,53.52
2018-09-25T13:20:26.180Z,54.97
2018-09-25T13:21:25.561Z,53.85
2018-09-25T13:22:25.565Z,55.58
2018-09-25T13:23:25.888Z,54.79
2018-09-25T13:24:25.524Z,56.30
2018-09-25T13:25:25.525Z,58.37
2018-09-25T13:26:25.501Z,58.06
2018-09-25T13:27:26.673Z,55.61
2018-09-25T13:28:25.482Z,54.49
2018-09-25T13:29:25.464Z,54.82
2018-09-25T13:30:25.468Z,53.98
2018-09-25T13:31:25.473Z,54.39
2018-09-25T13:32:25.433Z,54.08
2018-09-25T13:33:25.503Z,55.51
2018-09-25T13:34:27.013Z,57.14
2018-09-25T13:35:25.404Z,58.47
2018-09-25T13:36:25.384Z,60.10
2018-09-25T13:37:25.372Z,59.18
2018-09-25T13:38:25.368Z,60.51
2018-09-25T13:39:26.679Z,60.21
2018-09-25T13:40:25.351Z,59.69
2018-09-25T13:41:25.333Z,57.96
2018-09-25T13:42:25.320Z,57.86
2018-09-25T13:43:25.310Z,58.57
2018-09-25T13:44:25.294Z,59.49
2018-09-25T13:45:25.295Z,54.90
2018-09-25T13:46:25.272Z,58.14
2018-09-25T13:47:25.260Z,59.16
2018-09-25T13:48:25.286Z,54.67
2018-09-25T13:49:27.159Z,54.94
2018-09-25T13:50:26.247Z,53.42
2018-09-25T13:51:25.215Z,54.74
2018-09-25T13:52:25.205Z,55.74
2018-09-25T13:53:25.189Z,56.55
2018-09-25T13:54:25.178Z,58.49
2018-09-25T13:55:25.203Z,54.31
2018-09-25T13:56:25.167Z,53.09
2018-09-25T13:57:25.883Z,51.86
2018-09-25T13:58:25.783Z,52.35
2018-09-25T13:59:25.128Z,56.96
2018-09-25T14:00:25.117Z,58.97
2018-09-25T14:01:25.111Z,56.12
2018-09-25T14:02:25.088Z,53.67
2018-09-25T14:03:25.148Z,52.86
2018-09-25T14:04:25.064Z,55.51
2018-09-25T14:05:25.041Z,54.72
2018-09-25T14:06:25.059Z,51.13
2018-09-25T14:07:25.034Z,50.84
2018-09-25T14:08:25.024Z,51.25
2018-09-25T14:09:26.733Z,49.11
2018-09-25T14:10:24.996Z,51.46
2018-09-25T14:11:25.001Z,53.80
2018-09-25T14:12:24.970Z,56.55
2018-09-25T14:13:24.959Z,54.21
2018-09-25T14:14:24.952Z,56.35
2018-09-25T14:15:24.939Z,59.51
2018-09-25T14:16:24.940Z,56.45
2018-09-25T14:17:24.917Z,52.48
2018-09-25T14:18:24.908Z,51.86
2018-09-25T14:19:24.895Z,52.15
2018-09-25T14:20:24.900Z,53.98
2018-09-25T14:21:24.885Z,58.56
2018-09-25T14:22:24.868Z,53.16
2018-09-25T14:23:24.851Z,49.29
2018-09-25T14:24:25.687Z,51.94
2018-09-25T14:25:24.826Z,49.19
2018-09-25T14:26:24.828Z,50.52
2018-09-25T14:27:24.805Z,49.09
2018-09-25T14:28:24.796Z,49.70
2018-09-25T14:29:24.782Z,49.19
2018-09-25T14:30:24.773Z,51.03
2018-09-25T14:31:24.776Z,51.03
2018-09-25T14:32:24.792Z,51.23
2018-09-25T14:33:24.736Z,51.74
2018-09-25T14:34:24.746Z,51.33
2018-09-25T14:35:24.710Z,53.16
2018-09-25T14:36:24.707Z,49.60
2018-09-25T14:37:24.704Z,49.52
2018-09-25T14:38:24.679Z,49.83
2018-09-25T14:39:24.675Z,51.97
2018-09-25T14:40:24.654Z,52.50
2018-09-25T14:41:24.655Z,50.56
2018-09-25T14:42:25.527Z,51.89
2018-09-25T14:43:24.620Z,53.62
2018-09-25T14:44:24.666Z,53.55
2018-09-25T14:45:24.597Z,50.89
2018-09-25T14:46:24.594Z,50.59
2018-09-25T14:47:24.577Z,53.64
2018-09-25T14:48:24.568Z,52.42
2018-09-25T14:49:24.552Z,52.96
2018-09-25T14:50:24.544Z,54.49
2018-09-25T14:51:24.607Z,54.49
2018-09-25T14:52:24.518Z,56.73
2018-09-25T14:53:24.507Z,54.69
2018-09-25T14:54:24.555Z,53.59
2018-09-25T14:55:24.500Z,54.31
2018-09-25T14:56:24.496Z,54.61
2018-09-25T14:57:24.457Z,56.66
2018-09-25T14:58:24.452Z,57.37
2018-09-25T14:59:25.044Z,54.72
2018-09-25T15:00:24.424Z,58.42
2018-09-25T15:01:24.428Z,59.85
2018-09-25T15:02:24.405Z,61.38
2018-09-25T15:03:24.393Z,60.77
2018-09-25T15:04:24.382Z,58.93
2018-09-25T15:05:24.373Z,61.82
2018-09-25T15:06:24.378Z,64.14
2018-09-25T15:07:24.435Z,63.04
2018-09-25T15:08:24.334Z,63.96
2018-09-25T15:09:24.326Z,66.21
2018-09-25T15:10:24.312Z,66.11
2018-09-25T15:11:24.310Z,66.66
2018-09-25T15:12:24.295Z,66.66
2018-09-25T15:13:24.320Z,66.75
2018-09-25T15:14:26.765Z,64.43
2018-09-25T15:15:24.258Z,64.03
2018-09-25T15:16:24.791Z,63.72
2018-09-25T15:17:24.707Z,64.43
2018-09-25T15:18:24.225Z,65.90
2018-09-25T15:19:24.213Z,66.61
2018-09-25T15:20:24.713Z,66.13
2018-09-25T15:21:26.831Z,65.42
2018-09-25T15:22:24.833Z,67.70
2018-09-25T15:23:24.163Z,68.83
2018-09-25T15:24:24.150Z,69.34
2018-09-25T15:25:25.271Z,68.01
2018-09-25T15:26:24.137Z,69.78
2018-09-25T15:27:25.431Z,67.94
2018-09-25T15:28:24.107Z,68.35
2018-09-25T15:29:24.096Z,68.76
2018-09-25T15:30:24.180Z,68.79
2018-09-25T15:31:25.789Z,69.06
2018-09-25T15:32:26.718Z,69.81
2018-09-25T15:33:24.104Z,72.27
2018-09-25T15:34:24.693Z,73.64
2018-09-25T15:35:24.910Z,73.95
2018-09-25T15:36:24.025Z,74.05
2018-09-25T15:37:24.009Z,73.33
2018-09-25T15:38:23.994Z,74.26
2018-09-25T15:39:24.067Z,73.57
2018-09-25T15:40:24.172Z,72.44
2018-09-25T15:41:24.012Z,73.16
2018-09-25T15:42:26.748Z,72.96
2018-09-25T15:43:24.006Z,72.03
2018-09-25T15:44:25.532Z,72.03
2018-09-25T15:45:25.474Z,72.75
2018-09-25T15:46:24.003Z,73.68
2018-09-25T15:47:23.892Z,73.36
2018-09-25T15:48:23.881Z,73.71
2018-09-25T15:49:23.938Z,73.71
2018-09-25T15:50:23.855Z,73.30
2018-09-25T15:51:23.855Z,73.50
2018-09-25T15:52:23.836Z,72.82
2018-09-25T15:53:24.520Z,73.64
2018-09-25T15:54:23.812Z,73.64
2018-09-25T15:55:23.797Z,74.12
2018-09-25T15:56:24.496Z,73.44
2018-09-25T15:57:23.775Z,73.33
2018-09-25T15:58:23.763Z,73.33
2018-09-25T15:59:23.754Z,73.74
2018-09-25T16:00:24.893Z,73.98
2018-09-25T16:01:23.763Z,75.32
2018-09-25T16:02:23.719Z,75.52
2018-09-25T16:03:23.709Z,75.42
2018-09-25T16:04:23.693Z,75.32
2018-09-25T16:05:23.683Z,75.83
2018-09-25T16:06:23.662Z,75.52
2018-09-25T16:07:23.689Z,75.52
2018-09-25T16:08:23.650Z,75.63
2018-09-25T16:09:23.639Z,75.83
2018-09-25T16:10:23.628Z,77.17
2018-09-25T16:11:23.616Z,77.06
2018-09-25T16:12:23.612Z,77.58
2018-09-25T16:13:23.593Z,77.78
2018-09-25T16:14:23.569Z,77.92
2018-09-25T16:15:23.568Z,79.30
2018-09-25T16:16:23.560Z,79.40
2018-09-25T16:17:23.577Z,79.91
2018-09-25T16:18:23.545Z,79.50
2018-09-25T16:19:23.523Z,80.53
2018-09-25T16:20:24.605Z,80.77
2018-09-25T16:21:23.505Z,80.74
2018-09-25T16:22:26.672Z,80.84
2018-09-25T16:23:23.478Z,80.77
2018-09-25T16:24:23.466Z,81.09
2018-09-25T16:25:23.498Z,80.67
2018-09-25T16:26:24.963Z,80.67
2018-09-25T16:27:23.439Z,81.09
2018-09-25T16:28:23.423Z,81.19
2018-09-25T16:29:23.412Z,80.05
2018-09-25T16:30:23.400Z,80.26
2018-09-25T16:31:23.756Z,79.64
2018-09-25T16:32:23.435Z,79.95
2018-09-25T16:33:23.364Z,80.19
2018-09-25T16:34:23.348Z,80.71
2018-09-25T16:35:23.947Z,80.81
2018-09-25T16:36:23.325Z,81.12
2018-09-25T16:37:23.334Z,80.91
2018-09-25T16:38:23.308Z,80.91
2018-09-25T16:39:23.564Z,81.02
2018-09-25T16:40:23.285Z,81.02
2018-09-25T16:41:23.275Z,81.33
2018-09-25T16:42:23.272Z,81.84
2018-09-25T16:43:23.248Z,82.15
2018-09-25T16:44:23.236Z,80.91
2018-09-25T16:45:23.813Z,81.16
2018-09-25T16:46:23.217Z,81.05
2018-09-25T16:47:23.257Z,81.05
2018-09-25T16:48:23.191Z,81.05